SLSA/SBL METAR and TAF weather

Enter ICAO airport designator
Station Type Date Time Source
SLSA METAR 2023/02/05 14:00 UTC NOAA

SLSA 051400Z 14005KT 9999 BKN015 BKN080 24/23 Q1015


Station Type Date Time Source
SLSA Decoded METAR 2023/02/05 14:00 UTC NOAA

Santa Ana, Bolivia (SLSA) 13-46S 065-26W
Feb 05, 2023 - 09:00 AM EST / 2023.02.05 1400 UTC
Wind: from the SE (140 degrees) at 6 MPH (5 KT):0
Visibility: greater than 7 mile(s):0
Sky conditions: mostly cloudy
Temperature: 75 F (24 C)
Dew Point: 73 F (23 C)
Relative Humidity: 94%
Pressure (altimeter): 29.97 in. Hg (1015 hPa)
ob: SLSA 051400Z 14005KT 9999 BKN015 BKN080 24/23 Q1015
cycle: 14

Station Type Date Time Source
SLSA TAF 2009/01/07 11:00 UTC NOAA

METAR SLSA 071100Z 00000KT 9999 FEW020 BKN080 26/24 Q1009

Example: see airport list